createdAt,value
2023-02-23T06:03:19.482Z,29.42
2023-02-23T06:04:20.436Z,28.65
2023-02-23T08:16:25.044Z,33.52
2023-02-23T08:17:25.018Z,33.64
2023-02-23T08:19:25.020Z,33.27
2023-02-23T08:20:25.043Z,33.70
2023-02-23T08:21:25.048Z,33.20
2023-02-23T08:22:25.097Z,33.59
2023-02-23T08:23:25.109Z,33.26
2023-02-23T08:24:25.145Z,33.17
2023-02-23T08:26:25.182Z,33.31
2023-02-23T08:27:25.329Z,33.49
2023-02-23T08:29:25.250Z,33.31
2023-02-23T08:30:25.301Z,33.58
2023-02-23T08:32:25.392Z,33.38
2023-02-23T08:33:25.362Z,34.08
2023-02-23T08:34:25.385Z,34.57
2023-02-23T08:35:25.399Z,34.53
2023-02-23T08:36:25.429Z,34.94
2023-02-23T08:37:25.508Z,34.89
2023-02-23T08:38:25.504Z,34.70
2023-02-23T08:40:25.575Z,35.35
2023-02-23T08:41:25.591Z,35.37
2023-02-23T08:42:25.619Z,35.26
2023-02-23T08:43:25.633Z,35.48
2023-02-23T08:44:25.626Z,35.42
2023-02-23T08:45:25.635Z,34.92
2023-02-23T08:46:25.672Z,35.19
2023-02-23T08:47:25.866Z,34.75
2023-02-23T08:48:25.679Z,34.86
2023-02-23T08:49:25.686Z,34.81
2023-02-23T08:50:27.411Z,35.10
2023-02-23T08:51:25.723Z,35.57
2023-02-23T08:53:25.836Z,35.60
2023-02-23T08:54:25.716Z,34.42
2023-02-23T08:55:25.695Z,33.64
2023-02-23T08:57:25.662Z,33.22
2023-02-23T08:58:25.655Z,32.91
2023-02-23T08:59:25.740Z,31.93
2023-02-23T09:00:25.652Z,32.32
2023-02-23T09:01:25.800Z,31.93
2023-02-23T09:02:25.666Z,31.40
2023-02-23T09:03:25.632Z,30.85
2023-02-23T09:04:25.618Z,30.53
2023-02-23T09:06:25.614Z,29.92
2023-02-23T09:07:25.613Z,29.49
2023-02-23T09:08:25.597Z,29.60
2023-02-23T09:09:25.579Z,29.61
2023-02-23T09:10:25.571Z,29.66
2023-02-23T09:13:25.559Z,29.35
2023-02-23T09:14:25.547Z,29.34
2023-02-23T09:15:25.639Z,29.28
2023-02-23T09:16:25.557Z,29.08
2023-02-23T09:17:25.535Z,29.00
2023-02-23T09:18:25.518Z,29.05
2023-02-23T09:19:25.515Z,28.91
2023-02-23T09:23:25.500Z,28.69
2023-02-23T09:24:25.482Z,28.72
2023-02-23T09:25:25.490Z,28.60
2023-02-23T09:26:25.454Z,28.53
2023-02-23T09:28:25.448Z,28.33
2023-02-23T09:29:25.435Z,28.23
2023-02-23T09:30:25.440Z,28.18
2023-02-23T09:31:25.656Z,28.16
2023-02-23T09:32:25.602Z,28.16
2023-02-23T09:36:25.424Z,27.95
2023-02-23T09:37:25.403Z,27.85
2023-02-23T09:38:25.392Z,27.79
2023-02-23T09:40:25.373Z,28.04
2023-02-23T09:43:25.374Z,27.28
2023-02-23T09:44:25.334Z,27.12
2023-02-23T09:46:25.361Z,27.10
2023-02-23T09:47:25.407Z,26.88
2023-02-23T09:48:25.442Z,26.98
2023-02-23T09:52:25.622Z,27.51
2023-02-23T09:53:25.619Z,27.63
2023-02-23T09:54:25.621Z,27.70
2023-02-23T09:55:25.642Z,27.75
2023-02-23T09:56:25.696Z,27.61
2023-02-23T09:57:25.738Z,27.55
2023-02-23T09:59:25.856Z,27.93
2023-02-23T10:02:25.958Z,28.02
2023-02-23T10:04:26.087Z,28.41
2023-02-23T10:05:25.972Z,28.30
2023-02-23T10:06:26.000Z,28.03
2023-02-23T10:07:25.021Z,28.27
2023-02-23T10:08:26.030Z,28.45
2023-02-23T10:09:26.064Z,28.36
2023-02-23T10:10:26.196Z,28.42
2023-02-23T10:11:26.205Z,28.03
2023-02-23T10:12:26.251Z,28.30
2023-02-23T10:13:26.308Z,28.17
2023-02-23T10:14:26.369Z,28.19
2023-02-23T10:15:26.439Z,28.23
2023-02-23T10:16:26.496Z,28.23
2023-02-23T10:17:26.557Z,28.04
2023-02-23T10:18:35.952Z,28.17
2023-02-23T10:19:26.635Z,28.22
2023-02-23T10:20:25.590Z,28.24
2023-02-23T10:21:26.600Z,28.13
2023-02-23T10:22:26.592Z,28.28
2023-02-23T10:23:26.587Z,28.37
2023-02-23T10:24:26.587Z,28.36
2023-02-23T10:25:26.569Z,28.34
2023-02-23T10:26:25.557Z,28.28
2023-02-23T10:27:26.549Z,28.22
2023-02-23T10:28:26.553Z,27.49
2023-02-23T10:29:26.560Z,27.86
2023-02-23T10:30:26.650Z,27.86
2023-02-23T10:31:26.763Z,27.82
2023-02-23T10:32:25.811Z,28.03
2023-02-23T10:33:26.938Z,27.68
2023-02-23T10:34:25.750Z,27.75
2023-02-23T10:35:26.882Z,27.72
2023-02-23T10:36:27.410Z,27.86
2023-02-23T10:37:27.602Z,27.97
2023-02-23T10:38:27.576Z,28.14
2023-02-23T10:39:27.501Z,27.82
2023-02-23T10:40:27.557Z,28.19
2023-02-23T10:41:27.706Z,28.20
2023-02-23T10:42:27.591Z,28.08
2023-02-23T10:43:26.234Z,27.24
2023-02-23T10:44:27.527Z,26.74
2023-02-23T10:45:26.307Z,27.05
2023-02-23T10:46:27.387Z,27.37
2023-02-23T10:47:27.722Z,27.55
2023-02-23T10:48:27.024Z,27.64
2023-02-23T10:49:26.476Z,27.71
2023-02-23T10:50:27.685Z,27.51
2023-02-23T10:51:27.686Z,26.86
2023-02-23T10:52:27.654Z,26.55
2023-02-23T10:53:27.834Z,26.55
2023-02-23T10:54:27.666Z,26.63
2023-02-23T10:55:26.674Z,26.80
2023-02-23T10:56:27.372Z,26.26
2023-02-23T10:57:26.725Z,26.43
2023-02-23T10:58:26.866Z,26.60
2023-02-23T10:59:27.706Z,26.60
2023-02-23T11:00:26.738Z,26.36
2023-02-23T11:01:27.810Z,26.55
2023-02-23T11:02:26.778Z,26.49
2023-02-23T11:03:26.735Z,26.53
2023-02-23T11:04:27.786Z,26.44
2023-02-23T11:05:27.064Z,26.51
2023-02-23T11:06:26.741Z,26.51
2023-02-23T11:07:27.930Z,26.50
2023-02-23T11:08:27.258Z,26.40
2023-02-23T11:09:43.765Z,26.37
2023-02-23T11:10:27.828Z,26.37
2023-02-23T11:11:27.779Z,26.49
2023-02-23T11:12:27.783Z,26.50
2023-02-23T11:13:27.760Z,26.37
2023-02-23T11:14:27.773Z,26.40
2023-02-23T11:15:39.357Z,26.52
2023-02-23T11:16:27.856Z,26.53
2023-02-23T11:17:26.793Z,26.42
2023-02-23T11:18:28.407Z,26.18
2023-02-23T11:19:26.737Z,25.82
2023-02-23T11:20:27.792Z,26.20
2023-02-23T11:21:27.718Z,26.15
2023-02-23T11:22:27.716Z,26.36
2023-02-23T11:23:27.738Z,26.34
2023-02-23T11:24:27.700Z,26.38
2023-02-23T11:25:26.701Z,26.27
2023-02-23T11:26:27.770Z,26.19
2023-02-23T11:27:27.801Z,26.37
2023-02-23T11:28:27.865Z,26.37
2023-02-23T11:29:27.918Z,26.34
2023-02-23T11:30:28.055Z,26.32
2023-02-23T11:31:28.196Z,26.35
2023-02-23T11:32:28.324Z,26.27
2023-02-23T11:34:28.226Z,26.37
2023-02-23T11:35:28.297Z,26.39
2023-02-23T11:52:28.946Z,25.99
2023-02-23T11:57:29.041Z,26.00
2023-02-23T12:00:29.151Z,26.09
2023-02-23T13:15:31.733Z,26.97
2023-02-23T15:14:33.763Z,27.79
2023-02-23T15:15:32.792Z,27.78
2023-02-23T15:16:33.825Z,27.80
2023-02-23T15:21:33.963Z,29.99
2023-02-23T15:22:34.011Z,29.91
2023-02-23T15:23:34.134Z,29.78
2023-02-23T15:24:34.137Z,29.33
2023-02-23T15:25:34.198Z,29.25
2023-02-23T15:26:33.282Z,29.24
2023-02-23T15:27:33.333Z,29.16
2023-02-23T15:28:34.373Z,29.11
2023-02-23T15:29:33.442Z,28.93
2023-02-23T15:30:34.505Z,29.00
2023-02-23T15:31:34.921Z,28.83
2023-02-23T15:32:34.808Z,28.48
2023-02-23T15:33:33.619Z,28.11
2023-02-23T15:34:33.670Z,28.03
2023-02-23T15:35:33.690Z,28.04
2023-02-23T15:36:34.750Z,28.16
2023-02-23T15:37:33.706Z,28.34
2023-02-23T15:38:43.605Z,28.25
2023-02-23T15:39:34.768Z,28.34
2023-02-23T15:40:33.749Z,28.44
2023-02-23T15:41:34.754Z,28.51
2023-02-23T15:42:34.715Z,28.54
2023-02-23T15:43:34.712Z,28.56
2023-02-23T15:44:43.635Z,28.49
2023-02-23T15:45:34.755Z,28.42
2023-02-23T15:46:34.685Z,28.39
2023-02-23T15:47:33.678Z,28.32
2023-02-23T15:48:34.691Z,28.37
2023-02-23T15:49:34.707Z,28.41
2023-02-23T15:50:37.075Z,28.34
2023-02-23T15:51:33.687Z,28.25
2023-02-23T15:52:34.655Z,28.20
2023-02-23T15:53:33.660Z,28.16
2023-02-23T15:54:34.661Z,28.08
2023-02-23T15:55:34.671Z,28.04
2023-02-23T15:56:33.644Z,28.03
2023-02-23T15:57:34.624Z,27.94
2023-02-23T15:58:36.210Z,27.93
2023-02-23T15:59:34.600Z,27.95
2023-02-23T16:00:34.595Z,27.98
2023-02-23T16:01:33.597Z,27.91
2023-02-23T16:02:34.579Z,27.90
2023-02-23T16:03:34.614Z,27.83
2023-02-23T16:04:34.574Z,27.85
2023-02-23T16:05:38.338Z,27.75
2023-02-23T16:06:34.564Z,27.82
2023-02-23T16:07:34.549Z,27.96
2023-02-23T16:08:36.575Z,28.04
2023-02-23T16:09:34.561Z,28.08
2023-02-23T16:10:34.525Z,28.11
2023-02-23T16:11:34.560Z,28.10
2023-02-23T16:12:33.504Z,28.09
2023-02-23T16:13:34.498Z,28.09
2023-02-23T16:14:34.485Z,28.08
2023-02-23T16:15:34.522Z,28.05
2023-02-23T16:16:33.589Z,28.03
2023-02-23T16:17:34.471Z,27.99
2023-02-23T16:18:33.467Z,27.81
2023-02-23T16:19:33.460Z,27.83
2023-02-23T16:20:34.465Z,27.87
2023-02-23T16:21:34.458Z,27.88
2023-02-23T16:22:34.443Z,27.91
2023-02-23T16:23:34.731Z,27.92
2023-02-23T16:24:33.423Z,27.93
2023-02-23T16:25:34.442Z,27.95
2023-02-23T16:26:34.421Z,27.93
2023-02-23T16:27:34.440Z,27.95
2023-02-23T16:28:33.418Z,27.96
2023-02-23T16:29:34.403Z,28.01
